Super Servant 4 — PJPO — position and weather

sailwx.info

Track history (hours):
 
Tides and Currents Weather Stations Pressure Air Temp Water Temp Dewpoint Dewpoint Depression Visibility Wind Speed Wind Dir Waves Ship Positions

Super Servant 4

Last reported at 2014-Dec-20 07:07 UTC. Time now 2014-Dec-20 15:50 UTC.
Position N 42°60' E 005°17'.

Length 139 m; beam 32 m.

Type: Cargo ship. MMSI: 306157000.

Date/timePositionNaut miles runAvg speedWind from/ knotsBaromVisibWave heightAir tempDewpointWater temp
2014-Dec-20 07:07N 42°60' E 005°17'7 9.2
2014-Dec-20 06:20N 42°56' E 005°26'16 8.5
2014-Dec-20 04:31N 42°50' E 005°45'8 8.2
2014-Dec-20 03:33N 42°47' E 005°55'8 8.1
2014-Dec-20 02:32N 42°45' E 006°06'6710.4
2014-Dec-19 20:09N 43°15' E 007°27'1912.1
2014-Dec-19 18:33N 43°29' E 007°46'4212.3
2014-Dec-19 15:09N 44°00' E 008°24'812.4
2014-Dec-19 14:31N 44°05' E 008°32'9 9.4
2014-Dec-19 13:32N 44°13' E 008°39'8 8.3
2014-Dec-19 12:33N 44°21' E 008°42'5 5.2
2014-Dec-19 11:31N 44°25' E 008°47'0 0.0
2014-Dec-19 10:28N 44°25' E 008°47'0 0.0
2014-Dec-19 09:31N 44°25' E 008°47'0 0.0
2014-Dec-19 08:31N 44°25' E 008°47'0 0.0
2014-Dec-19 07:31N 44°25' E 008°47'0 0.0
2014-Dec-19 06:31N 44°25' E 008°47'0 0.0
2014-Dec-19 05:31N 44°25' E 008°47'0 0.0
2014-Dec-19 04:31N 44°25' E 008°47'0 0.0
2014-Dec-19 03:31N 44°25' E 008°47'0 0.0
2014-Dec-19 02:31N 44°25' E 008°47'0 0.0
2014-Dec-19 01:31N 44°25' E 008°47'0 0.0
2014-Dec-19 00:31N 44°25' E 008°47'0 0.0
2014-Dec-18 23:31N 44°25' E 008°47'0 0.0
2014-Dec-18 22:31N 44°25' E 008°47'0 0.0
2014-Dec-18 21:31N 44°25' E 008°47'0 0.0
2014-Dec-18 20:31N 44°25' E 008°47'0 0.0
2014-Dec-18 19:31N 44°25' E 008°47'0 0.0
2014-Dec-18 18:31N 44°25' E 008°47'0 0.0
2014-Dec-18 17:31N 44°25' E 008°47'0 0.0
2014-Dec-18 16:25N 44°25' E 008°47'0 0.0
2014-Dec-18 15:31N 44°25' E 008°47'0 0.0
2014-Dec-18 14:31N 44°25' E 008°47'0 0.0
2014-Dec-18 13:31N 44°25' E 008°47'0 0.0
2014-Dec-18 12:31N 44°25' E 008°47'0 0.0
2014-Dec-18 11:31N 44°25' E 008°47'0 0.0
2014-Dec-18 10:31N 44°25' E 008°47'0 0.0
2014-Dec-18 09:31N 44°25' E 008°47'0 0.0
2014-Dec-18 08:28N 44°25' E 008°47'0 0.0
2014-Dec-18 07:31N 44°25' E 008°47'0 0.0
2014-Dec-18 06:28N 44°25' E 008°47'0 0.0
2014-Dec-18 05:28N 44°25' E 008°47'0 0.0
2014-Dec-18 04:31N 44°25' E 008°47'0 0.0
2014-Dec-18 03:31N 44°25' E 008°47'0 0.0
2014-Dec-18 02:31N 44°25' E 008°47'0 0.0
2014-Dec-18 01:31N 44°25' E 008°47'0 0.0
2014-Dec-18 00:31N 44°25' E 008°47'0 0.0
2014-Dec-17 23:28N 44°25' E 008°47'0 0.0
2014-Dec-17 22:31N 44°25' E 008°47'0 0.0
2014-Dec-17 21:31N 44°25' E 008°47'0 0.0
2014-Dec-17 20:31N 44°25' E 008°47'0 0.0
2014-Dec-17 19:31N 44°25' E 008°47'0 0.0
2014-Dec-17 18:31N 44°25' E 008°47'0 0.0
2014-Dec-17 17:31N 44°25' E 008°47'0 0.0
2014-Dec-17 16:22N 44°25' E 008°47'0 0.0
2014-Dec-17 15:31N 44°25' E 008°47'0 0.0
2014-Dec-17 14:31N 44°25' E 008°47'0 0.0
2014-Dec-17 13:31N 44°25' E 008°47'0 0.0
2014-Dec-17 12:31N 44°25' E 008°47'0 0.0
2014-Dec-17 11:31N 44°25' E 008°47'0 0.0
2014-Dec-17 10:31N 44°25' E 008°47'0 0.0
2014-Dec-17 09:31N 44°25' E 008°47'0 0.0
2014-Dec-17 08:31N 44°25' E 008°47'0 0.0
2014-Dec-17 07:31N 44°25' E 008°47'0 0.0
2014-Dec-17 06:28N 44°25' E 008°47'0 0.0
2014-Dec-17 05:31N 44°25' E 008°47'0 0.0
2014-Dec-17 04:31N 44°25' E 008°47'0 0.0
2014-Dec-17 03:31N 44°25' E 008°47'0 0.0
2014-Dec-17 02:28N 44°25' E 008°47'0 0.0
2014-Dec-17 01:31N 44°25' E 008°47'0 0.0
2014-Dec-17 00:31N 44°25' E 008°47'0 0.0
2014-Dec-16 23:31N 44°25' E 008°47'0 0.0
2014-Dec-16 22:31N 44°25' E 008°47'0 0.0
2014-Dec-16 21:31N 44°25' E 008°47'0 0.0
2014-Dec-16 20:31N 44°25' E 008°47'0 0.0
2014-Dec-16 19:31N 44°25' E 008°47'0 0.0
2014-Dec-16 18:31N 44°25' E 008°47'0 0.0
2014-Dec-16 17:31N 44°25' E 008°47'0 0.0
2014-Dec-16 16:31N 44°25' E 008°47'0 0.0
2014-Dec-16 15:31N 44°25' E 008°47'0 0.0
2014-Dec-16 14:31N 44°25' E 008°47'0 0.0
2014-Dec-16 13:31N 44°25' E 008°47'0 0.0
2014-Dec-16 12:31N 44°25' E 008°47'0 0.0
2014-Dec-16 11:31N 44°25' E 008°47'0 0.0
2014-Dec-16 10:31N 44°25' E 008°47'0 0.0
2014-Dec-16 09:31N 44°25' E 008°47'0 0.0
2014-Dec-16 08:31N 44°25' E 008°47'0 0.3
2014-Dec-16 07:33N 44°25' E 008°47'4 3.5
2014-Dec-16 06:33N 44°22' E 008°48'5 5.5
2014-Dec-16 05:33N 44°24' E 008°55'0 0.3
2014-Dec-16 04:18N 44°24' E 008°56'0 0.0
2014-Dec-16 03:30N 44°24' E 008°56'0 0.0
2014-Dec-16 02:30N 44°24' E 008°56'0 0.0
2014-Dec-16 01:09N 44°24' E 008°56'0 0.0
2014-Dec-16 00:06N 44°24' E 008°56'0 0.0
2014-Dec-15 23:15N 44°24' E 008°56'0 0.0
2014-Dec-15 22:15N 44°24' E 008°56'0 0.0
2014-Dec-15 21:06N 44°24' E 008°56'0 0.0
2014-Dec-15 20:30N 44°24' E 008°56'0 0.0
2014-Dec-15 19:30N 44°24' E 008°56'0 0.0
2014-Dec-15 18:30N 44°24' E 008°56'0 0.0
2014-Dec-15 17:30N 44°24' E 008°56'0 0.0
2014-Dec-15 16:30N 44°24' E 008°56'0 0.0
2014-Dec-15 15:33N 44°24' E 008°56'0 0.0
2014-Dec-15 14:30N 44°24' E 008°56'0 0.0
2014-Dec-15 13:15N 44°24' E 008°56'0 0.0
2014-Dec-15 12:18N 44°24' E 008°56'0 0.0
2014-Dec-15 11:24N 44°24' E 008°56'0 0.0
2014-Dec-15 10:30N 44°24' E 008°56'0 0.0
2014-Dec-15 09:30N 44°24' E 008°56'0 0.0
2014-Dec-15 08:24N 44°24' E 008°56'0 0.0
2014-Dec-15 07:30N 44°24' E 008°56'0 0.0
2014-Dec-15 06:30N 44°24' E 008°56'0 0.0
2014-Dec-15 05:30N 44°24' E 008°56'0 0.0
2014-Dec-15 04:30N 44°24' E 008°56'0 0.0
2014-Dec-15 03:33N 44°24' E 008°56'0 0.0
2014-Dec-15 02:27N 44°24' E 008°56'0 0.0
2014-Dec-15 01:33N 44°24' E 008°56'0 0.0
2014-Dec-15 00:33N 44°24' E 008°56'0 0.0
2014-Dec-14 23:33N 44°24' E 008°56'0 0.0
2014-Dec-14 22:30N 44°24' E 008°56'0 0.0
2014-Dec-14 21:30N 44°24' E 008°56'0 0.0
2014-Dec-14 20:18N 44°24' E 008°56'0 0.0
2014-Dec-14 19:30N 44°24' E 008°56'0 0.0
2014-Dec-14 18:30N 44°24' E 008°56'0 0.0
2014-Dec-14 17:30N 44°24' E 008°56'0 0.0
2014-Dec-14 16:30N 44°24' E 008°56'0 0.0
2014-Dec-14 15:33N 44°24' E 008°56'0 0.0
2014-Dec-14 14:33N 44°24' E 008°56'0 0.0
2014-Dec-14 13:33N 44°24' E 008°56'0 0.0
2014-Dec-14 12:30N 44°24' E 008°56'0 0.0
2014-Dec-14 11:33N 44°24' E 008°56'0 0.0
2014-Dec-14 10:33N 44°24' E 008°56'0 0.0
2014-Dec-14 09:30N 44°24' E 008°56'0 0.0
2014-Dec-14 08:33N 44°24' E 008°56'0 0.0
2014-Dec-14 07:33N 44°24' E 008°56'0 0.0
2014-Dec-14 06:21N 44°24' E 008°56'0 0.0
2014-Dec-14 05:30N 44°24' E 008°56'0 0.0
2014-Dec-14 04:15N 44°24' E 008°56'0 0.0
2014-Dec-14 03:33N 44°24' E 008°56'0 0.0
2014-Dec-14 02:33N 44°24' E 008°56'0 0.0
2014-Dec-14 01:27N 44°24' E 008°56'0 0.0
2014-Dec-14 00:33N 44°24' E 008°56'0 0.0
2014-Dec-13 23:33N 44°24' E 008°56'0 0.0
2014-Dec-13 22:30N 44°24' E 008°56'0 0.0
2014-Dec-13 21:30N 44°24' E 008°56'0 0.0
2014-Dec-13 20:30N 44°24' E 008°56'0 0.0
2014-Dec-13 19:30N 44°24' E 008°56'0 0.0
2014-Dec-13 18:12N 44°24' E 008°56'0 0.0
2014-Dec-13 17:24N 44°24' E 008°56'0 0.0
2014-Dec-13 16:30N 44°24' E 008°56'0 0.0
2014-Dec-13 15:30N 44°24' E 008°56'0 0.0
2014-Dec-13 14:24N 44°24' E 008°56'0 0.0
2014-Dec-13 13:30N 44°24' E 008°56'0 0.0
2014-Dec-13 12:30N 44°24' E 008°56'0 0.0
2014-Dec-13 11:30N 44°24' E 008°56'0 0.0
2014-Dec-13 10:30N 44°24' E 008°56'0 0.0
2014-Dec-13 09:30N 44°24' E 008°56'0 0.0
2014-Dec-13 08:24N 44°24' E 008°56'0 0.0
2014-Dec-13 07:30N 44°24' E 008°56'0 0.0
2014-Dec-13 06:30N 44°24' E 008°56'0 0.0
2014-Dec-13 05:30N 44°24' E 008°56'0 0.0
2014-Dec-13 04:18N 44°24' E 008°56'0 0.0
2014-Dec-13 03:30N 44°24' E 008°56'0 0.0
2014-Dec-13 02:33N 44°24' E 008°56'0 0.0
2014-Dec-13 01:33N 44°24' E 008°56'0 0.0
2014-Dec-13 00:30N 44°24' E 008°56'0 0.0
2014-Dec-12 23:33N 44°24' E 008°56'0 0.0
2014-Dec-12 22:18N 44°24' E 008°56'0 0.0
2014-Dec-12 21:30N 44°24' E 008°56'0 0.0
2014-Dec-12 20:18N 44°24' E 008°56'0 0.0
2014-Dec-12 19:33N 44°24' E 008°56'0 0.0
2014-Dec-12 18:30N 44°24' E 008°56'0 0.0
2014-Dec-12 17:30N 44°24' E 008°56'0 0.0
2014-Dec-12 16:06N 44°24' E 008°56'0 0.0
2014-Dec-12 15:30N 44°24' E 008°56'0 0.0
2014-Dec-12 14:18N 44°24' E 008°56'0 0.0
2014-Dec-12 13:24N 44°24' E 008°56'0 0.0
2014-Dec-12 12:30N 44°24' E 008°56'0 0.0
2014-Dec-12 11:30N 44°24' E 008°56'0 0.0
2014-Dec-12 10:30N 44°24' E 008°56'0 0.0
2014-Dec-12 09:30N 44°24' E 008°56'0 0.0
2014-Dec-12 08:24N 44°24' E 008°56'0 0.0
2014-Dec-12 07:30N 44°24' E 008°56'0 0.0
2014-Dec-12 06:24N 44°24' E 008°56'0 0.0
2014-Dec-12 05:30N 44°24' E 008°56'0 0.0
2014-Dec-12 04:24N 44°24' E 008°56'0 0.0
2014-Dec-12 03:30N 44°24' E 008°56'0 0.0
2014-Dec-12 02:33N 44°24' E 008°56'0 0.0
2014-Dec-12 01:33N 44°24' E 008°56'0 0.0
2014-Dec-12 00:33N 44°24' E 008°56'0 0.0
2014-Dec-11 23:18N 44°24' E 008°56'0 0.0
2014-Dec-11 22:30N 44°24' E 008°56'0 0.0
2014-Dec-11 21:30N 44°24' E 008°56'0 0.0
2014-Dec-11 20:30N 44°24' E 008°56'0 0.0
2014-Dec-11 19:30N 44°24' E 008°56'0 0.0
2014-Dec-11 18:30N 44°24' E 008°56'0 0.0
2014-Dec-11 17:24N 44°24' E 008°56'0 0.0
2014-Dec-11 16:30N 44°24' E 008°56'0 0.0
2014-Dec-11 15:30N 44°24' E 008°56'0 0.0
2014-Dec-11 14:24N 44°24' E 008°56'0 0.0
2014-Dec-11 13:30N 44°24' E 008°56'0 0.0
2014-Dec-11 12:24N 44°24' E 008°56'0 0.0
2014-Dec-11 11:30N 44°24' E 008°56'0 0.0
2014-Dec-11 10:30N 44°24' E 008°56'0 0.0
2014-Dec-11 09:30N 44°24' E 008°56'0 0.0
2014-Dec-11 08:24N 44°24' E 008°56'0 0.0
2014-Dec-11 07:30N 44°24' E 008°56'0 0.0
2014-Dec-11 06:24N 44°24' E 008°56'0 0.0
2014-Dec-11 05:24N 44°24' E 008°56'0 0.0
2014-Dec-11 04:30N 44°24' E 008°56'0 0.0
2014-Dec-11 03:33N 44°24' E 008°56'0 0.0
2014-Dec-11 02:33N 44°24' E 008°56'0 0.0
2014-Dec-11 01:30N 44°24' E 008°56'0 0.0
2014-Dec-11 00:30N 44°24' E 008°56'0 0.0
2014-Dec-10 23:33N 44°24' E 008°56'0 0.0
2014-Dec-10 22:24N 44°24' E 008°56'0 0.0
2014-Dec-10 21:24N 44°24' E 008°56'0 0.0
2014-Dec-10 20:30N 44°24' E 008°56'0 0.0
2014-Dec-10 19:33N 44°24' E 008°56'0 0.0
2014-Dec-10 18:33N 44°24' E 008°56'0 0.0
2014-Dec-10 17:30N 44°24' E 008°56'0 0.0
2014-Dec-10 16:30N 44°24' E 008°56'0 0.0
2014-Dec-10 15:12N 44°24' E 008°56'0 0.0
2014-Dec-10 14:24N 44°24' E 008°56'0 0.0
2014-Dec-10 13:30N 44°24' E 008°56'0 0.0
2014-Dec-10 12:24N 44°24' E 008°56'0 0.0
2014-Dec-10 11:34N 44°24' E 008°56'0 0.1
2014-Dec-10 10:34N 44°24' E 008°55'3 2.6
2014-Dec-10 09:33N 44°22' E 008°55'7 6.3
2014-Dec-10 08:29N 44°25' E 008°47'0 0.0
2014-Dec-10 07:32N 44°25' E 008°47'  
Track history (hours):
 
Tides and Currents Weather Stations Pressure Air Temp Water Temp Dewpoint Dewpoint Depression Visibility Wind Speed Wind Dir Waves Ship Positions

Super Servant 4

Last reported at 2014-Dec-20 07:07 UTC. Time now 2014-Dec-20 15:50 UTC.
Position N 42°60' E 005°17'.

Length 139 m; beam 32 m.

Type: Cargo ship. MMSI: 306157000.

Date/timePositionNaut miles runAvg speedWind from/ knotsBaromVisibWave heightAir tempDewpointWater temp
2014-Dec-20 07:07N 42°60' E 005°17'7 9.2
2014-Dec-20 06:20N 42°56' E 005°26'16 8.5
2014-Dec-20 04:31N 42°50' E 005°45'8 8.2
2014-Dec-20 03:33N 42°47' E 005°55'8 8.1
2014-Dec-20 02:32N 42°45' E 006°06'6710.4
2014-Dec-19 20:09N 43°15' E 007°27'1912.1
2014-Dec-19 18:33N 43°29' E 007°46'4212.3
2014-Dec-19 15:09N 44°00' E 008°24'812.4
2014-Dec-19 14:31N 44°05' E 008°32'9 9.4
2014-Dec-19 13:32N 44°13' E 008°39'8 8.3
2014-Dec-19 12:33N 44°21' E 008°42'5 5.2
2014-Dec-19 11:31N 44°25' E 008°47'0 0.0
2014-Dec-19 10:28N 44°25' E 008°47'0 0.0
2014-Dec-19 09:31N 44°25' E 008°47'0 0.0
2014-Dec-19 08:31N 44°25' E 008°47'0 0.0
2014-Dec-19 07:31N 44°25' E 008°47'0 0.0
2014-Dec-19 06:31N 44°25' E 008°47'0 0.0
2014-Dec-19 05:31N 44°25' E 008°47'0 0.0
2014-Dec-19 04:31N 44°25' E 008°47'0 0.0
2014-Dec-19 03:31N 44°25' E 008°47'0 0.0
2014-Dec-19 02:31N 44°25' E 008°47'0 0.0
2014-Dec-19 01:31N 44°25' E 008°47'0 0.0
2014-Dec-19 00:31N 44°25' E 008°47'0 0.0
2014-Dec-18 23:31N 44°25' E 008°47'0 0.0
2014-Dec-18 22:31N 44°25' E 008°47'0 0.0
2014-Dec-18 21:31N 44°25' E 008°47'0 0.0
2014-Dec-18 20:31N 44°25' E 008°47'0 0.0
2014-Dec-18 19:31N 44°25' E 008°47'0 0.0
2014-Dec-18 18:31N 44°25' E 008°47'0 0.0
2014-Dec-18 17:31N 44°25' E 008°47'0 0.0
2014-Dec-18 16:25N 44°25' E 008°47'0 0.0
2014-Dec-18 15:31N 44°25' E 008°47'0 0.0
2014-Dec-18 14:31N 44°25' E 008°47'0 0.0
2014-Dec-18 13:31N 44°25' E 008°47'0 0.0
2014-Dec-18 12:31N 44°25' E 008°47'0 0.0
2014-Dec-18 11:31N 44°25' E 008°47'0 0.0
2014-Dec-18 10:31N 44°25' E 008°47'0 0.0
2014-Dec-18 09:31N 44°25' E 008°47'0 0.0
2014-Dec-18 08:28N 44°25' E 008°47'0 0.0
2014-Dec-18 07:31N 44°25' E 008°47'0 0.0
2014-Dec-18 06:28N 44°25' E 008°47'0 0.0
2014-Dec-18 05:28N 44°25' E 008°47'0 0.0
2014-Dec-18 04:31N 44°25' E 008°47'0 0.0
2014-Dec-18 03:31N 44°25' E 008°47'0 0.0
2014-Dec-18 02:31N 44°25' E 008°47'0 0.0
2014-Dec-18 01:31N 44°25' E 008°47'0 0.0
2014-Dec-18 00:31N 44°25' E 008°47'0 0.0
2014-Dec-17 23:28N 44°25' E 008°47'0 0.0
2014-Dec-17 22:31N 44°25' E 008°47'0 0.0
2014-Dec-17 21:31N 44°25' E 008°47'0 0.0
2014-Dec-17 20:31N 44°25' E 008°47'0 0.0
2014-Dec-17 19:31N 44°25' E 008°47'0 0.0
2014-Dec-17 18:31N 44°25' E 008°47'0 0.0
2014-Dec-17 17:31N 44°25' E 008°47'0 0.0
2014-Dec-17 16:22N 44°25' E 008°47'0 0.0
2014-Dec-17 15:31N 44°25' E 008°47'0 0.0
2014-Dec-17 14:31N 44°25' E 008°47'0 0.0
2014-Dec-17 13:31N 44°25' E 008°47'0 0.0
2014-Dec-17 12:31N 44°25' E 008°47'0 0.0
2014-Dec-17 11:31N 44°25' E 008°47'0 0.0
2014-Dec-17 10:31N 44°25' E 008°47'0 0.0
2014-Dec-17 09:31N 44°25' E 008°47'0 0.0
2014-Dec-17 08:31N 44°25' E 008°47'0 0.0
2014-Dec-17 07:31N 44°25' E 008°47'0 0.0
2014-Dec-17 06:28N 44°25' E 008°47'0 0.0
2014-Dec-17 05:31N 44°25' E 008°47'0 0.0
2014-Dec-17 04:31N 44°25' E 008°47'0 0.0
2014-Dec-17 03:31N 44°25' E 008°47'0 0.0
2014-Dec-17 02:28N 44°25' E 008°47'0 0.0
2014-Dec-17 01:31N 44°25' E 008°47'0 0.0
2014-Dec-17 00:31N 44°25' E 008°47'0 0.0
2014-Dec-16 23:31N 44°25' E 008°47'0 0.0
2014-Dec-16 22:31N 44°25' E 008°47'0 0.0
2014-Dec-16 21:31N 44°25' E 008°47'0 0.0
2014-Dec-16 20:31N 44°25' E 008°47'0 0.0
2014-Dec-16 19:31N 44°25' E 008°47'0 0.0
2014-Dec-16 18:31N 44°25' E 008°47'0 0.0
2014-Dec-16 17:31N 44°25' E 008°47'0 0.0
2014-Dec-16 16:31N 44°25' E 008°47'0 0.0
2014-Dec-16 15:31N 44°25' E 008°47'0 0.0
2014-Dec-16 14:31N 44°25' E 008°47'0 0.0
2014-Dec-16 13:31N 44°25' E 008°47'0 0.0
2014-Dec-16 12:31N 44°25' E 008°47'0 0.0
2014-Dec-16 11:31N 44°25' E 008°47'0 0.0
2014-Dec-16 10:31N 44°25' E 008°47'0 0.0
2014-Dec-16 09:31N 44°25' E 008°47'0 0.0
2014-Dec-16 08:31N 44°25' E 008°47'0 0.3
2014-Dec-16 07:33N 44°25' E 008°47'4 3.5
2014-Dec-16 06:33N 44°22' E 008°48'5 5.5
2014-Dec-16 05:33N 44°24' E 008°55'0 0.3
2014-Dec-16 04:18N 44°24' E 008°56'0 0.0
2014-Dec-16 03:30N 44°24' E 008°56'0 0.0
2014-Dec-16 02:30N 44°24' E 008°56'0 0.0
2014-Dec-16 01:09N 44°24' E 008°56'0 0.0
2014-Dec-16 00:06N 44°24' E 008°56'0 0.0
2014-Dec-15 23:15N 44°24' E 008°56'0 0.0
2014-Dec-15 22:15N 44°24' E 008°56'0 0.0
2014-Dec-15 21:06N 44°24' E 008°56'0 0.0
2014-Dec-15 20:30N 44°24' E 008°56'0 0.0
2014-Dec-15 19:30N 44°24' E 008°56'0 0.0
2014-Dec-15 18:30N 44°24' E 008°56'0 0.0
2014-Dec-15 17:30N 44°24' E 008°56'0 0.0
2014-Dec-15 16:30N 44°24' E 008°56'0 0.0
2014-Dec-15 15:33N 44°24' E 008°56'0 0.0
2014-Dec-15 14:30N 44°24' E 008°56'0 0.0
2014-Dec-15 13:15N 44°24' E 008°56'0 0.0
2014-Dec-15 12:18N 44°24' E 008°56'0 0.0
2014-Dec-15 11:24N 44°24' E 008°56'0 0.0
2014-Dec-15 10:30N 44°24' E 008°56'0 0.0
2014-Dec-15 09:30N 44°24' E 008°56'0 0.0
2014-Dec-15 08:24N 44°24' E 008°56'0 0.0
2014-Dec-15 07:30N 44°24' E 008°56'0 0.0
2014-Dec-15 06:30N 44°24' E 008°56'0 0.0
2014-Dec-15 05:30N 44°24' E 008°56'0 0.0
2014-Dec-15 04:30N 44°24' E 008°56'0 0.0
2014-Dec-15 03:33N 44°24' E 008°56'0 0.0
2014-Dec-15 02:27N 44°24' E 008°56'0 0.0
2014-Dec-15 01:33N 44°24' E 008°56'0 0.0
2014-Dec-15 00:33N 44°24' E 008°56'0 0.0
2014-Dec-14 23:33N 44°24' E 008°56'0 0.0
2014-Dec-14 22:30N 44°24' E 008°56'0 0.0
2014-Dec-14 21:30N 44°24' E 008°56'0 0.0
2014-Dec-14 20:18N 44°24' E 008°56'0 0.0
2014-Dec-14 19:30N 44°24' E 008°56'0 0.0
2014-Dec-14 18:30N 44°24' E 008°56'0 0.0
2014-Dec-14 17:30N 44°24' E 008°56'0 0.0
2014-Dec-14 16:30N 44°24' E 008°56'0 0.0
2014-Dec-14 15:33N 44°24' E 008°56'0 0.0
2014-Dec-14 14:33N 44°24' E 008°56'0 0.0
2014-Dec-14 13:33N 44°24' E 008°56'0 0.0
2014-Dec-14 12:30N 44°24' E 008°56'0 0.0
2014-Dec-14 11:33N 44°24' E 008°56'0 0.0
2014-Dec-14 10:33N 44°24' E 008°56'0 0.0
2014-Dec-14 09:30N 44°24' E 008°56'0 0.0
2014-Dec-14 08:33N 44°24' E 008°56'0 0.0
2014-Dec-14 07:33N 44°24' E 008°56'0 0.0
2014-Dec-14 06:21N 44°24' E 008°56'0 0.0
2014-Dec-14 05:30N 44°24' E 008°56'0 0.0
2014-Dec-14 04:15N 44°24' E 008°56'0 0.0
2014-Dec-14 03:33N 44°24' E 008°56'0 0.0
2014-Dec-14 02:33N 44°24' E 008°56'0 0.0
2014-Dec-14 01:27N 44°24' E 008°56'0 0.0
2014-Dec-14 00:33N 44°24' E 008°56'0 0.0
2014-Dec-13 23:33N 44°24' E 008°56'0 0.0
2014-Dec-13 22:30N 44°24' E 008°56'0 0.0
2014-Dec-13 21:30N 44°24' E 008°56'0 0.0
2014-Dec-13 20:30N 44°24' E 008°56'0 0.0
2014-Dec-13 19:30N 44°24' E 008°56'0 0.0
2014-Dec-13 18:12N 44°24' E 008°56'0 0.0
2014-Dec-13 17:24N 44°24' E 008°56'0 0.0
2014-Dec-13 16:30N 44°24' E 008°56'0 0.0
2014-Dec-13 15:30N 44°24' E 008°56'0 0.0
2014-Dec-13 14:24N 44°24' E 008°56'0 0.0
2014-Dec-13 13:30N 44°24' E 008°56'0 0.0
2014-Dec-13 12:30N 44°24' E 008°56'0 0.0
2014-Dec-13 11:30N 44°24' E 008°56'0 0.0
2014-Dec-13 10:30N 44°24' E 008°56'0 0.0
2014-Dec-13 09:30N 44°24' E 008°56'0 0.0
2014-Dec-13 08:24N 44°24' E 008°56'0 0.0
2014-Dec-13 07:30N 44°24' E 008°56'0 0.0
2014-Dec-13 06:30N 44°24' E 008°56'0 0.0
2014-Dec-13 05:30N 44°24' E 008°56'0 0.0
2014-Dec-13 04:18N 44°24' E 008°56'0 0.0
2014-Dec-13 03:30N 44°24' E 008°56'0 0.0
2014-Dec-13 02:33N 44°24' E 008°56'0 0.0
2014-Dec-13 01:33N 44°24' E 008°56'0 0.0
2014-Dec-13 00:30N 44°24' E 008°56'0 0.0
2014-Dec-12 23:33N 44°24' E 008°56'0 0.0
2014-Dec-12 22:18N 44°24' E 008°56'0 0.0
2014-Dec-12 21:30N 44°24' E 008°56'0 0.0
2014-Dec-12 20:18N 44°24' E 008°56'0 0.0
2014-Dec-12 19:33N 44°24' E 008°56'0 0.0
2014-Dec-12 18:30N 44°24' E 008°56'0 0.0
2014-Dec-12 17:30N 44°24' E 008°56'0 0.0
2014-Dec-12 16:06N 44°24' E 008°56'0 0.0
2014-Dec-12 15:30N 44°24' E 008°56'0 0.0
2014-Dec-12 14:18N 44°24' E 008°56'0 0.0
2014-Dec-12 13:24N 44°24' E 008°56'0 0.0
2014-Dec-12 12:30N 44°24' E 008°56'0 0.0
2014-Dec-12 11:30N 44°24' E 008°56'0 0.0
2014-Dec-12 10:30N 44°24' E 008°56'0 0.0
2014-Dec-12 09:30N 44°24' E 008°56'0 0.0
2014-Dec-12 08:24N 44°24' E 008°56'0 0.0
2014-Dec-12 07:30N 44°24' E 008°56'0 0.0
2014-Dec-12 06:24N 44°24' E 008°56'0 0.0
2014-Dec-12 05:30N 44°24' E 008°56'0 0.0
2014-Dec-12 04:24N 44°24' E 008°56'0 0.0
2014-Dec-12 03:30N 44°24' E 008°56'0 0.0
2014-Dec-12 02:33N 44°24' E 008°56'0 0.0
2014-Dec-12 01:33N 44°24' E 008°56'0 0.0
2014-Dec-12 00:33N 44°24' E 008°56'0 0.0
2014-Dec-11 23:18N 44°24' E 008°56'0 0.0
2014-Dec-11 22:30N 44°24' E 008°56'0 0.0
2014-Dec-11 21:30N 44°24' E 008°56'0 0.0
2014-Dec-11 20:30N 44°24' E 008°56'0 0.0
2014-Dec-11 19:30N 44°24' E 008°56'0 0.0
2014-Dec-11 18:30N 44°24' E 008°56'0 0.0
2014-Dec-11 17:24N 44°24' E 008°56'0 0.0
2014-Dec-11 16:30N 44°24' E 008°56'0 0.0
2014-Dec-11 15:30N 44°24' E 008°56'0 0.0
2014-Dec-11 14:24N 44°24' E 008°56'0 0.0
2014-Dec-11 13:30N 44°24' E 008°56'0 0.0
2014-Dec-11 12:24N 44°24' E 008°56'0 0.0
2014-Dec-11 11:30N 44°24' E 008°56'0 0.0
2014-Dec-11 10:30N 44°24' E 008°56'0 0.0
2014-Dec-11 09:30N 44°24' E 008°56'0 0.0
2014-Dec-11 08:24N 44°24' E 008°56'0 0.0
2014-Dec-11 07:30N 44°24' E 008°56'0 0.0
2014-Dec-11 06:24N 44°24' E 008°56'0 0.0
2014-Dec-11 05:24N 44°24' E 008°56'0 0.0
2014-Dec-11 04:30N 44°24' E 008°56'0 0.0
2014-Dec-11 03:33N 44°24' E 008°56'0 0.0
2014-Dec-11 02:33N 44°24' E 008°56'0 0.0
2014-Dec-11 01:30N 44°24' E 008°56'0 0.0
2014-Dec-11 00:30N 44°24' E 008°56'0 0.0
2014-Dec-10 23:33N 44°24' E 008°56'0 0.0
2014-Dec-10 22:24N 44°24' E 008°56'0 0.0
2014-Dec-10 21:24N 44°24' E 008°56'0 0.0
2014-Dec-10 20:30N 44°24' E 008°56'0 0.0
2014-Dec-10 19:33N 44°24' E 008°56'0 0.0
2014-Dec-10 18:33N 44°24' E 008°56'0 0.0
2014-Dec-10 17:30N 44°24' E 008°56'0 0.0
2014-Dec-10 16:30N 44°24' E 008°56'0 0.0
2014-Dec-10 15:12N 44°24' E 008°56'0 0.0
2014-Dec-10 14:24N 44°24' E 008°56'0 0.0
2014-Dec-10 13:30N 44°24' E 008°56'0 0.0
2014-Dec-10 12:24N 44°24' E 008°56'0 0.0
2014-Dec-10 11:34N 44°24' E 008°56'0 0.1
2014-Dec-10 10:34N 44°24' E 008°55'3 2.6
2014-Dec-10 09:33N 44°22' E 008°55'7 6.3
2014-Dec-10 08:29N 44°25' E 008°47'0 0.0
2014-Dec-10 07:32N 44°25' E 008°47'  

Dump ship's entire track history